AFL1284 UUEE-UWKD
Flight info
| Callsign | AFL1284 |
|---|---|
| Flight time | 1h 13m |
| Altitude | 35000 |
| Route | KOGOM3H KOGOM L94 EKPIR M864 INKEB L94 UNORO T788 KOROM KOROM1T |
| Aircraft | B738/M-SDE2E3FGHIRWXY/LB1 |
Departure
| Time | 2026-05-04 19:47 |
|---|---|
| Airport | Sheremetyevo International Airport (UUEE) |
Arrival
| Time | 2026-05-04 21:01 |
|---|---|
| Airport | Kazan International Airport (UWKD) |
| Time | Latitude | Longitude | Altitude | Speed | Heading |
|---|---|---|---|---|---|
| 2026-05-04 19:16 | 55.97698 | 37.40009 | 638 ft | 0 kts | 165° |
| 2026-05-04 19:39 | 55.97687 | 37.40014 | 642 ft | 4 kts | 166° |
| 2026-05-04 19:40 | 55.97641 | 37.40001 | 638 ft | 10 kts | 231° |
| 2026-05-04 19:40 | 55.97616 | 37.39841 | 641 ft | 15 kts | 255° |
| 2026-05-04 19:40 | 55.97562 | 37.39765 | 640 ft | 9 kts | 173° |
| 2026-05-04 19:40 | 55.97501 | 37.39791 | 638 ft | 10 kts | 167° |
| 2026-05-04 19:41 | 55.97424 | 37.39833 | 641 ft | 14 kts | 162° |
| 2026-05-04 19:41 | 55.97351 | 37.39928 | 638 ft | 14 kts | 96° |
| 2026-05-04 19:41 | 55.97365 | 37.40038 | 642 ft | 0 kts | 71° |
| 2026-05-04 19:41 | 55.97373 | 37.40097 | 638 ft | 12 kts | 78° |
| 2026-05-04 19:42 | 55.97407 | 37.40330 | 644 ft | 27 kts | 75° |
| 2026-05-04 19:42 | 55.97460 | 37.40687 | 646 ft | 29 kts | 76° |
| 2026-05-04 19:42 | 55.97511 | 37.41024 | 638 ft | 27 kts | 75° |
| 2026-05-04 19:42 | 55.97557 | 37.41339 | 639 ft | 25 kts | 77° |
| 2026-05-04 19:43 | 55.97602 | 37.41633 | 638 ft | 24 kts | 75° |
| 2026-05-04 19:43 | 55.97642 | 37.41910 | 640 ft | 23 kts | 72° |
| 2026-05-04 19:43 | 55.97684 | 37.42180 | 641 ft | 22 kts | 77° |
| 2026-05-04 19:43 | 55.97723 | 37.42446 | 645 ft | 22 kts | 77° |
| 2026-05-04 19:44 | 55.97759 | 37.42709 | 641 ft | 21 kts | 90° |
| 2026-05-04 19:44 | 55.97726 | 37.42797 | 641 ft | 0 kts | 162° |
| 2026-05-04 19:45 | 55.97712 | 37.42805 | 638 ft | 3 kts | 163° |
| 2026-05-04 19:45 | 55.97681 | 37.42821 | 638 ft | 6 kts | 166° |
| 2026-05-04 19:45 | 55.97637 | 37.42826 | 639 ft | 8 kts | 189° |
| 2026-05-04 19:45 | 55.97591 | 37.42742 | 640 ft | 0 kts | 252° |
| 2026-05-04 19:46 | 55.97565 | 37.42569 | 639 ft | 52 kts | 254° |
| 2026-05-04 19:47 | 55.97386 | 37.41391 | 642 ft | 142 kts | 255° |
| 2026-05-04 19:47 | 55.97079 | 37.39297 | 922 ft | 196 kts | 254° |
| 2026-05-04 19:47 | 55.96711 | 37.36729 | 1526 ft | 226 kts | 253° |
| 2026-05-04 19:47 | 55.96314 | 37.34083 | 2696 ft | 221 kts | 252° |
| 2026-05-04 19:48 | 55.95878 | 37.31432 | 3499 ft | 224 kts | 252° |
| 2026-05-04 19:48 | 55.95435 | 37.28730 | 4177 ft | 228 kts | 253° |
| 2026-05-04 19:48 | 55.94995 | 37.26005 | 4851 ft | 230 kts | 254° |
| 2026-05-04 19:48 | 55.94553 | 37.23245 | 5517 ft | 232 kts | 254° |
| 2026-05-04 19:49 | 55.94112 | 37.20465 | 6214 ft | 233 kts | 254° |
| 2026-05-04 19:49 | 55.93669 | 37.17668 | 6836 ft | 236 kts | 255° |
| 2026-05-04 19:49 | 55.93223 | 37.14836 | 7428 ft | 238 kts | 255° |
| 2026-05-04 19:49 | 55.92772 | 37.11982 | 8056 ft | 240 kts | 255° |
| 2026-05-04 19:50 | 55.92315 | 37.09103 | 8691 ft | 243 kts | 255° |
| 2026-05-04 19:50 | 55.91849 | 37.06163 | 9185 ft | 254 kts | 255° |
| 2026-05-04 19:50 | 55.91634 | 37.02960 | 9584 ft | 270 kts | 276° |
| 2026-05-04 19:50 | 55.92259 | 36.99797 | 10394 ft | 276 kts | 300° |
| 2026-05-04 19:51 | 55.93597 | 36.97293 | 11255 ft | 283 kts | 320° |
| 2026-05-04 19:51 | 55.95261 | 36.95352 | 12062 ft | 291 kts | 331° |
| 2026-05-04 19:51 | 55.97267 | 36.94613 | 12704 ft | 303 kts | 1° |
| 2026-05-04 19:51 | 55.99316 | 36.95766 | 12874 ft | 326 kts | 31° |
| 2026-05-04 19:52 | 56.00886 | 36.98810 | 13379 ft | 344 kts | 62° |
| 2026-05-04 19:52 | 56.01493 | 37.02948 | 14092 ft | 350 kts | 90° |
| 2026-05-04 19:52 | 56.00983 | 37.07159 | 14837 ft | 350 kts | 118° |
| 2026-05-04 19:52 | 55.99521 | 37.10498 | 15553 ft | 348 kts | 141° |
| 2026-05-04 19:53 | 55.97881 | 37.13724 | 16211 ft | 358 kts | 122° |
| 2026-05-04 19:53 | 55.96939 | 37.17852 | 16937 ft | 364 kts | 107° |
| 2026-05-04 19:53 | 55.96374 | 37.22300 | 17689 ft | 368 kts | 101° |
| 2026-05-04 19:53 | 55.95961 | 37.26831 | 18324 ft | 374 kts | 99° |
| 2026-05-04 19:54 | 55.95582 | 37.31470 | 18943 ft | 378 kts | 99° |
| 2026-05-04 19:54 | 55.95198 | 37.36110 | 19581 ft | 381 kts | 99° |
| 2026-05-04 19:54 | 55.94791 | 37.40814 | 20207 ft | 384 kts | 100° |
| 2026-05-04 19:54 | 55.94356 | 37.45629 | 20822 ft | 388 kts | 100° |
| 2026-05-04 19:55 | 55.93910 | 37.50441 | 21434 ft | 392 kts | 100° |
| 2026-05-04 19:55 | 55.93464 | 37.55192 | 22032 ft | 395 kts | 100° |
| 2026-05-04 19:55 | 55.93004 | 37.60062 | 22620 ft | 399 kts | 101° |
| 2026-05-04 19:55 | 55.92541 | 37.64955 | 23198 ft | 403 kts | 101° |
| 2026-05-04 19:56 | 55.92070 | 37.69901 | 23708 ft | 406 kts | 101° |
| 2026-05-04 19:56 | 55.91467 | 37.74835 | 24163 ft | 409 kts | 113° |
| 2026-05-04 19:56 | 55.90094 | 37.79252 | 24681 ft | 406 kts | 125° |
| 2026-05-04 19:56 | 55.88566 | 37.83454 | 25235 ft | 407 kts | 124° |
| 2026-05-04 19:57 | 55.87138 | 37.87864 | 25654 ft | 412 kts | 120° |
| 2026-05-04 19:57 | 55.85809 | 37.92431 | 26100 ft | 416 kts | 119° |
| 2026-05-04 19:57 | 55.84479 | 37.97021 | 26572 ft | 419 kts | 120° |
| 2026-05-04 19:57 | 55.83095 | 38.01599 | 27044 ft | 420 kts | 121° |
| 2026-05-04 19:58 | 55.81673 | 38.06146 | 27500 ft | 423 kts | 121° |
| 2026-05-04 19:58 | 55.80284 | 38.10760 | 27911 ft | 427 kts | 114° |
| 2026-05-04 19:58 | 55.79714 | 38.14112 | 28096 ft | 433 kts | 101° |
| 2026-05-04 19:58 | 55.79592 | 38.19556 | 28195 ft | 445 kts | 86° |
| 2026-05-04 19:59 | 55.79872 | 38.25052 | 28299 ft | 455 kts | 84° |
| 2026-05-04 19:59 | 55.80238 | 38.36535 | 28444 ft | 473 kts | 89° |
| 2026-05-04 19:59 | 55.80392 | 38.42410 | 28638 ft | 479 kts | 85° |
| 2026-05-04 20:00 | 55.80881 | 38.48273 | 28973 ft | 481 kts | 73° |
| 2026-05-04 20:00 | 55.82136 | 38.53756 | 29413 ft | 479 kts | 63° |
| 2026-05-04 20:00 | 55.84009 | 38.60924 | 30011 ft | 478 kts | 69° |
| 2026-05-04 20:00 | 55.84646 | 38.64658 | 30194 ft | 479 kts | 76° |
| 2026-05-04 20:01 | 55.85366 | 38.70461 | 30602 ft | 477 kts | 77° |
| 2026-05-04 20:01 | 55.86213 | 38.76166 | 31023 ft | 475 kts | 73° |
| 2026-05-04 20:01 | 55.87148 | 38.81789 | 31444 ft | 473 kts | 73° |
| 2026-05-04 20:01 | 55.88069 | 38.87401 | 31835 ft | 472 kts | 73° |
| 2026-05-04 20:02 | 55.88936 | 38.93038 | 32228 ft | 471 kts | 75° |
| 2026-05-04 20:02 | 55.89724 | 38.98683 | 32638 ft | 469 kts | 76° |
| 2026-05-04 20:02 | 55.90471 | 39.04332 | 33031 ft | 467 kts | 76° |
| 2026-05-04 20:02 | 55.91221 | 39.09964 | 33408 ft | 466 kts | 76° |
| 2026-05-04 20:03 | 55.91991 | 39.15566 | 33774 ft | 465 kts | 75° |
| 2026-05-04 20:03 | 55.92780 | 39.21140 | 34119 ft | 463 kts | 75° |
| 2026-05-04 20:03 | 55.93577 | 39.26680 | 34411 ft | 463 kts | 75° |
| 2026-05-04 20:03 | 55.94385 | 39.32269 | 34660 ft | 463 kts | 75° |
| 2026-05-04 20:04 | 55.95175 | 39.37742 | 34871 ft | 464 kts | 75° |
| 2026-05-04 20:04 | 55.96790 | 39.49027 | 34866 ft | 468 kts | 75° |
| 2026-05-04 20:05 | 55.98383 | 39.60275 | 34852 ft | 462 kts | 75° |
| 2026-05-04 20:05 | 56.00234 | 39.71227 | 34848 ft | 459 kts | 66° |
| 2026-05-04 20:06 | 56.02721 | 39.81722 | 34853 ft | 459 kts | 69° |
| 2026-05-04 20:06 | 56.03578 | 39.87215 | 34818 ft | 461 kts | 83° |
| 2026-05-04 20:06 | 56.03650 | 39.92845 | 34931 ft | 459 kts | 92° |
| 2026-05-04 20:07 | 56.03201 | 40.04264 | 34869 ft | 461 kts | 92° |
| 2026-05-04 20:07 | 56.03217 | 40.15737 | 34869 ft | 462 kts | 87° |
| 2026-05-04 20:08 | 56.03488 | 40.27223 | 34862 ft | 463 kts | 87° |
| 2026-05-04 20:08 | 56.03675 | 40.38720 | 34866 ft | 464 kts | 88° |
| 2026-05-04 20:09 | 56.03791 | 40.50283 | 34865 ft | 465 kts | 88° |
| 2026-05-04 20:09 | 56.03891 | 40.61861 | 34865 ft | 465 kts | 88° |
| 2026-05-04 20:10 | 56.03989 | 40.73438 | 34866 ft | 466 kts | 88° |
| 2026-05-04 20:10 | 56.04070 | 40.85010 | 34868 ft | 465 kts | 89° |
| 2026-05-04 20:11 | 56.04136 | 40.96589 | 34870 ft | 465 kts | 89° |
| 2026-05-04 20:11 | 56.04192 | 41.08146 | 34865 ft | 464 kts | 89° |
| 2026-05-04 20:12 | 56.04239 | 41.19671 | 34867 ft | 464 kts | 89° |
| 2026-05-04 20:12 | 56.04275 | 41.31208 | 34863 ft | 463 kts | 89° |
| 2026-05-04 20:13 | 56.04300 | 41.42703 | 34866 ft | 462 kts | 89° |
| 2026-05-04 20:13 | 56.04315 | 41.54116 | 34862 ft | 462 kts | 89° |
| 2026-05-04 20:14 | 56.04319 | 41.65585 | 34863 ft | 461 kts | 89° |
| 2026-05-04 20:14 | 56.04313 | 41.77041 | 34862 ft | 460 kts | 89° |
| 2026-05-04 20:15 | 56.04296 | 41.88499 | 34868 ft | 460 kts | 89° |
| 2026-05-04 20:15 | 56.04268 | 42.00008 | 34861 ft | 460 kts | 89° |
| 2026-05-04 20:16 | 56.04230 | 42.11374 | 34864 ft | 460 kts | 89° |
| 2026-05-04 20:16 | 56.04181 | 42.22875 | 34863 ft | 460 kts | 89° |
| 2026-05-04 20:17 | 56.04121 | 42.34319 | 34860 ft | 460 kts | 89° |
| 2026-05-04 20:17 | 56.04054 | 42.45656 | 34859 ft | 460 kts | 89° |
| 2026-05-04 20:18 | 56.03970 | 42.57111 | 34861 ft | 460 kts | 89° |
| 2026-05-04 20:18 | 56.03840 | 42.68564 | 34862 ft | 460 kts | 90° |
| 2026-05-04 20:19 | 56.03693 | 42.80008 | 34859 ft | 461 kts | 90° |
| 2026-05-04 20:19 | 56.03542 | 42.91463 | 34863 ft | 461 kts | 90° |
| 2026-05-04 20:20 | 56.03382 | 43.02924 | 34859 ft | 461 kts | 90° |
| 2026-05-04 20:20 | 56.03212 | 43.14379 | 34863 ft | 461 kts | 90° |
| 2026-05-04 20:21 | 56.03033 | 43.25838 | 34857 ft | 461 kts | 90° |
| 2026-05-04 20:21 | 56.03262 | 43.42950 | 34869 ft | 458 kts | 81° |
| 2026-05-04 20:22 | 56.04154 | 43.54239 | 34866 ft | 458 kts | 79° |
| 2026-05-04 20:22 | 56.05032 | 43.65515 | 34855 ft | 458 kts | 80° |
| 2026-05-04 20:23 | 56.05811 | 43.76815 | 34867 ft | 458 kts | 81° |
| 2026-05-04 20:23 | 56.06544 | 43.88138 | 34854 ft | 458 kts | 81° |
| 2026-05-04 20:24 | 56.07264 | 43.99456 | 34861 ft | 457 kts | 81° |
| 2026-05-04 20:24 | 56.07978 | 44.10767 | 34853 ft | 457 kts | 81° |
| 2026-05-04 20:25 | 56.08683 | 44.22076 | 34862 ft | 457 kts | 81° |
| 2026-05-04 20:25 | 56.09378 | 44.33382 | 34854 ft | 457 kts | 81° |
| 2026-05-04 20:26 | 56.10062 | 44.44689 | 34859 ft | 457 kts | 81° |
| 2026-05-04 20:26 | 56.10736 | 44.55968 | 34857 ft | 457 kts | 81° |
| 2026-05-04 20:27 | 56.11363 | 44.67338 | 34848 ft | 458 kts | 84° |
| 2026-05-04 20:27 | 56.11367 | 44.78700 | 34863 ft | 460 kts | 91° |
| 2026-05-04 20:28 | 56.10853 | 44.90140 | 34863 ft | 461 kts | 91° |
| 2026-05-04 20:28 | 56.10551 | 45.01595 | 34860 ft | 460 kts | 89° |
| 2026-05-04 20:29 | 56.10331 | 45.13055 | 34861 ft | 461 kts | 89° |
| 2026-05-04 20:29 | 56.10055 | 45.24528 | 34865 ft | 461 kts | 89° |
| 2026-05-04 20:30 | 56.09766 | 45.35997 | 34857 ft | 461 kts | 89° |
| 2026-05-04 20:30 | 56.09468 | 45.47474 | 34866 ft | 461 kts | 89° |
| 2026-05-04 20:31 | 56.09163 | 45.58948 | 34857 ft | 461 kts | 89° |
| 2026-05-04 20:31 | 56.08848 | 45.70367 | 34866 ft | 461 kts | 89° |
| 2026-05-04 20:32 | 56.08522 | 45.81822 | 34863 ft | 461 kts | 90° |
| 2026-05-04 20:32 | 56.08186 | 45.93275 | 34866 ft | 460 kts | 90° |
| 2026-05-04 20:33 | 56.07838 | 46.04721 | 34861 ft | 460 kts | 90° |
| 2026-05-04 20:33 | 56.07481 | 46.16155 | 34866 ft | 460 kts | 90° |
| 2026-05-04 20:34 | 56.07113 | 46.27593 | 34864 ft | 460 kts | 90° |
| 2026-05-04 20:34 | 56.06736 | 46.39032 | 34863 ft | 460 kts | 90° |
| 2026-05-04 20:35 | 56.06543 | 46.44752 | 34759 ft | 462 kts | 90° |
| 2026-05-04 20:35 | 56.06278 | 46.50533 | 34112 ft | 468 kts | 94° |
| 2026-05-04 20:35 | 56.05606 | 46.56217 | 33486 ft | 470 kts | 105° |
| 2026-05-04 20:35 | 56.04377 | 46.61671 | 32864 ft | 472 kts | 111° |
| 2026-05-04 20:36 | 56.02992 | 46.66985 | 32073 ft | 474 kts | 112° |
| 2026-05-04 20:36 | 56.01662 | 46.72312 | 31735 ft | 464 kts | 109° |
| 2026-05-04 20:36 | 56.00506 | 46.77687 | 31109 ft | 462 kts | 106° |
| 2026-05-04 20:36 | 55.99450 | 46.83069 | 30678 ft | 457 kts | 105° |
| 2026-05-04 20:37 | 55.98400 | 46.88406 | 30177 ft | 454 kts | 106° |
| 2026-05-04 20:37 | 55.97325 | 46.93669 | 29656 ft | 451 kts | 107° |
| 2026-05-04 20:37 | 55.96228 | 46.98848 | 29126 ft | 452 kts | 108° |
| 2026-05-04 20:37 | 55.95078 | 47.04160 | 28594 ft | 451 kts | 108° |
| 2026-05-04 20:38 | 55.93943 | 47.09346 | 28107 ft | 446 kts | 108° |
| 2026-05-04 20:38 | 55.92836 | 47.14404 | 27599 ft | 442 kts | 108° |
| 2026-05-04 20:38 | 55.91724 | 47.19490 | 27100 ft | 438 kts | 108° |
| 2026-05-04 20:38 | 55.90620 | 47.24532 | 26525 ft | 436 kts | 108° |
| 2026-05-04 20:39 | 55.89518 | 47.29560 | 26017 ft | 434 kts | 108° |
| 2026-05-04 20:39 | 55.88425 | 47.34530 | 25559 ft | 429 kts | 108° |
| 2026-05-04 20:39 | 55.87338 | 47.39470 | 25062 ft | 426 kts | 108° |
| 2026-05-04 20:39 | 55.86260 | 47.44355 | 24601 ft | 423 kts | 109° |
| 2026-05-04 20:40 | 55.85186 | 47.49216 | 24133 ft | 420 kts | 109° |
| 2026-05-04 20:40 | 55.84117 | 47.54039 | 23651 ft | 418 kts | 109° |
| 2026-05-04 20:40 | 55.83049 | 47.58847 | 23109 ft | 416 kts | 109° |
| 2026-05-04 20:40 | 55.81989 | 47.63608 | 22605 ft | 413 kts | 109° |
| 2026-05-04 20:41 | 55.80933 | 47.68342 | 22117 ft | 409 kts | 109° |
| 2026-05-04 20:41 | 55.79893 | 47.73000 | 21641 ft | 406 kts | 109° |
| 2026-05-04 20:41 | 55.78846 | 47.77670 | 21173 ft | 403 kts | 109° |
| 2026-05-04 20:41 | 55.77812 | 47.82270 | 20720 ft | 399 kts | 109° |
| 2026-05-04 20:42 | 55.76781 | 47.86818 | 20331 ft | 395 kts | 109° |
| 2026-05-04 20:42 | 55.75756 | 47.91316 | 19861 ft | 393 kts | 109° |
| 2026-05-04 20:42 | 55.74737 | 47.95783 | 19420 ft | 390 kts | 109° |
| 2026-05-04 20:42 | 55.73716 | 48.00247 | 18980 ft | 388 kts | 109° |
| 2026-05-04 20:43 | 55.72702 | 48.04678 | 18530 ft | 386 kts | 109° |
| 2026-05-04 20:43 | 55.71692 | 48.09086 | 18033 ft | 386 kts | 109° |
| 2026-05-04 20:43 | 55.70683 | 48.13480 | 17532 ft | 383 kts | 109° |
| 2026-05-04 20:43 | 55.69680 | 48.17839 | 17079 ft | 380 kts | 109° |
| 2026-05-04 20:44 | 55.68689 | 48.22135 | 16876 ft | 371 kts | 109° |
| 2026-05-04 20:44 | 55.67727 | 48.26293 | 16906 ft | 359 kts | 109° |
| 2026-05-04 20:44 | 55.66794 | 48.30320 | 16873 ft | 347 kts | 109° |
| 2026-05-04 20:44 | 55.65910 | 48.34130 | 16863 ft | 333 kts | 109° |
| 2026-05-04 20:45 | 55.65325 | 48.36654 | 16861 ft | 324 kts | 109° |
| 2026-05-04 20:45 | 55.64485 | 48.40267 | 16867 ft | 311 kts | 109° |
| 2026-05-04 20:45 | 55.63675 | 48.43743 | 16854 ft | 298 kts | 109° |
| 2026-05-04 20:45 | 55.62901 | 48.47056 | 16868 ft | 286 kts | 109° |
| 2026-05-04 20:46 | 55.62114 | 48.50218 | 16855 ft | 276 kts | 113° |
| 2026-05-04 20:46 | 55.60896 | 48.54108 | 16884 ft | 273 kts | 118° |
| 2026-05-04 20:46 | 55.60231 | 48.56043 | 16815 ft | 273 kts | 118° |
| 2026-05-04 20:46 | 55.59231 | 48.58927 | 16492 ft | 278 kts | 118° |
| 2026-05-04 20:47 | 55.58217 | 48.61865 | 16104 ft | 281 kts | 118° |
| 2026-05-04 20:47 | 55.57196 | 48.64852 | 15685 ft | 286 kts | 118° |
| 2026-05-04 20:47 | 55.56162 | 48.67902 | 15235 ft | 293 kts | 118° |
| 2026-05-04 20:47 | 55.55103 | 48.71043 | 14559 ft | 306 kts | 119° |
| 2026-05-04 20:48 | 55.53972 | 48.74409 | 13493 ft | 331 kts | 119° |
| 2026-05-04 20:48 | 55.52768 | 48.77997 | 12606 ft | 346 kts | 119° |
| 2026-05-04 20:48 | 55.51536 | 48.81658 | 12149 ft | 345 kts | 119° |
| 2026-05-04 20:48 | 55.50349 | 48.85174 | 12249 ft | 316 kts | 119° |
| 2026-05-04 20:49 | 55.49284 | 48.88320 | 12262 ft | 287 kts | 119° |
| 2026-05-04 20:49 | 55.48301 | 48.91231 | 12131 ft | 266 kts | 119° |
| 2026-05-04 20:49 | 55.47407 | 48.93885 | 11987 ft | 247 kts | 119° |
| 2026-05-04 20:49 | 55.46556 | 48.96406 | 11853 ft | 230 kts | 118° |
| 2026-05-04 20:50 | 55.45749 | 48.98792 | 11514 ft | 225 kts | 118° |
| 2026-05-04 20:50 | 55.44945 | 49.01170 | 11124 ft | 226 kts | 118° |
| 2026-05-04 20:50 | 55.44144 | 49.03537 | 10828 ft | 224 kts | 119° |
| 2026-05-04 20:50 | 55.43350 | 49.05875 | 10502 ft | 222 kts | 119° |
| 2026-05-04 20:51 | 55.42557 | 49.08210 | 10171 ft | 222 kts | 119° |
| 2026-05-04 20:51 | 55.41770 | 49.10523 | 9871 ft | 220 kts | 119° |
| 2026-05-04 20:51 | 55.40985 | 49.12829 | 9527 ft | 219 kts | 119° |
| 2026-05-04 20:51 | 55.40203 | 49.15124 | 9191 ft | 218 kts | 119° |
| 2026-05-04 20:52 | 55.39427 | 49.17399 | 8849 ft | 217 kts | 119° |
| 2026-05-04 20:52 | 55.38655 | 49.19665 | 8515 ft | 216 kts | 120° |
| 2026-05-04 20:52 | 55.37885 | 49.21921 | 8185 ft | 214 kts | 120° |
| 2026-05-04 20:52 | 55.37119 | 49.24159 | 7876 ft | 213 kts | 120° |
| 2026-05-04 20:53 | 55.36356 | 49.26387 | 7554 ft | 212 kts | 120° |
| 2026-05-04 20:53 | 55.35596 | 49.28601 | 7241 ft | 211 kts | 120° |
| 2026-05-04 20:53 | 55.34865 | 49.30837 | 6927 ft | 210 kts | 112° |
| 2026-05-04 20:53 | 55.34709 | 49.33328 | 6541 ft | 207 kts | 70° |
| 2026-05-04 20:54 | 55.35449 | 49.35304 | 6456 ft | 186 kts | 40° |
| 2026-05-04 20:54 | 55.36446 | 49.36705 | 6187 ft | 184 kts | 33° |
| 2026-05-04 20:54 | 55.37486 | 49.38022 | 5864 ft | 184 kts | 32° |
| 2026-05-04 20:54 | 55.38521 | 49.39338 | 5554 ft | 184 kts | 33° |
| 2026-05-04 20:55 | 55.39568 | 49.40623 | 5242 ft | 182 kts | 22° |
| 2026-05-04 20:55 | 55.40790 | 49.40920 | 4911 ft | 176 kts | 353° |
| 2026-05-04 20:55 | 55.42004 | 49.40866 | 4636 ft | 175 kts | 357° |
| 2026-05-04 20:55 | 55.43221 | 49.40916 | 4336 ft | 175 kts | 358° |
| 2026-05-04 20:56 | 55.44439 | 49.40987 | 4001 ft | 175 kts | 358° |
| 2026-05-04 20:56 | 55.45655 | 49.41065 | 3704 ft | 175 kts | 358° |
| 2026-05-04 20:56 | 55.46870 | 49.41150 | 3418 ft | 174 kts | 358° |
| 2026-05-04 20:56 | 55.48062 | 49.41237 | 3221 ft | 171 kts | 357° |
| 2026-05-04 20:57 | 55.49263 | 49.41325 | 3043 ft | 174 kts | 357° |
| 2026-05-04 20:57 | 55.50483 | 49.41415 | 2842 ft | 176 kts | 357° |
| 2026-05-04 20:57 | 55.51692 | 49.41508 | 2636 ft | 176 kts | 356° |
| 2026-05-04 20:57 | 55.52914 | 49.41601 | 2405 ft | 176 kts | 356° |
| 2026-05-04 20:58 | 55.54111 | 49.41695 | 2168 ft | 167 kts | 356° |
| 2026-05-04 20:58 | 55.55191 | 49.41448 | 1932 ft | 149 kts | 324° |
| 2026-05-04 20:58 | 55.55792 | 49.40146 | 1813 ft | 137 kts | 296° |
| 2026-05-04 20:58 | 55.56404 | 49.38789 | 1609 ft | 142 kts | 306° |
| 2026-05-04 20:59 | 55.56965 | 49.37367 | 1411 ft | 141 kts | 298° |
| 2026-05-04 20:59 | 55.57518 | 49.35897 | 1216 ft | 148 kts | 302° |
| 2026-05-04 20:59 | 55.58116 | 49.34360 | 1014 ft | 154 kts | 303° |
| 2026-05-04 20:59 | 55.58717 | 49.32809 | 805 ft | 156 kts | 303° |
| 2026-05-04 21:00 | 55.59322 | 49.31218 | 599 ft | 154 kts | 304° |
| 2026-05-04 21:00 | 55.59939 | 49.29648 | 425 ft | 152 kts | 305° |
| 2026-05-04 21:00 | 55.60477 | 49.28254 | 408 ft | 121 kts | 304° |
| 2026-05-04 21:00 | 55.60869 | 49.27244 | 408 ft | 78 kts | 304° |
| 2026-05-04 21:01 | 55.61058 | 49.26780 | 413 ft | 18 kts | 327° |
| 2026-05-04 21:01 | 55.61121 | 49.26809 | 417 ft | 10 kts | 31° |
| 2026-05-04 21:01 | 55.61196 | 49.26900 | 409 ft | 16 kts | 34° |
| 2026-05-04 21:01 | 55.61213 | 49.27012 | 413 ft | 12 kts | 115° |
| 2026-05-04 21:02 | 55.61155 | 49.27165 | 409 ft | 17 kts | 126° |
| 2026-05-04 21:02 | 55.61080 | 49.27356 | 409 ft | 21 kts | 124° |
| 2026-05-04 21:02 | 55.60985 | 49.27603 | 407 ft | 28 kts | 127° |
| 2026-05-04 21:02 | 55.60867 | 49.27908 | 413 ft | 32 kts | 125° |
| 2026-05-04 21:03 | 55.60753 | 49.28203 | 410 ft | 26 kts | 124° |
| 2026-05-04 21:03 | 55.60653 | 49.28458 | 407 ft | 24 kts | 124° |
| 2026-05-04 21:03 | 55.60590 | 49.28628 | 414 ft | 4 kts | 114° |
| 2026-05-04 21:03 | 55.60590 | 49.28690 | 415 ft | 7 kts | 90° |
| 2026-05-04 21:04 | 55.60584 | 49.28823 | 415 ft | 15 kts | 95° |
| 2026-05-04 21:04 | 55.60577 | 49.29062 | 415 ft | 23 kts | 84° |
| 2026-05-04 21:04 | 55.60695 | 49.29283 | 415 ft | 28 kts | 35° |
| 2026-05-04 21:04 | 55.60809 | 49.29433 | 415 ft | 14 kts | 62° |
| 2026-05-04 21:05 | 55.60773 | 49.29581 | 410 ft | 14 kts | 125° |
| 2026-05-04 21:05 | 55.60714 | 49.29735 | 408 ft | 16 kts | 126° |
| 2026-05-04 21:05 | 55.60668 | 49.29869 | 413 ft | 10 kts | 99° |
| 2026-05-04 21:05 | 55.60696 | 49.29937 | 415 ft | 7 kts | 35° |
| 2026-05-04 21:06 | 55.60709 | 49.29952 | 415 ft | 3 kts | 35° |
| 2026-05-04 21:06 | 55.60715 | 49.29960 | 415 ft | 0 kts | 35° |
| 2026-05-04 21:06 | 55.60716 | 49.29961 | 415 ft | 0 kts | 35° |